This is the latest recevied weather packets stored in our database for station/object WW5AH-9. If no packets are shown the sender has not sent any weather packets the latest 1 day(s).
| Time | Temp. | Humidity | Pressure | Rain* | Wind** | Luminosity | Snow |
|---|---|---|---|---|---|---|---|
| 1777993915 | 21.67° C | 86% | 1005.7 hPa | 0 mm | 1.79 m/s, 153° | 113 W/m² | - |
| 1777993611 | 21.67° C | 86% | 1005.7 hPa | 0 mm | 0 m/s | 89 W/m² | - |
| 1777993308 | 21.67° C | 86% | 1005.8 hPa | 0 mm | 1.79 m/s, 126° | 85 W/m² | - |
| 1777993003 | 21.67° C | 86% | 1005.9 hPa | 0 mm | 1.34 m/s, 176° | 79 W/m² | - |
| 1777992702 | 21.67° C | 86% | 1005.9 hPa | 0 mm | 0.45 m/s, 238° | 74 W/m² | - |
| 1777992399 | 21.67° C | 86% | 1005.9 hPa | 0 mm | 2.24 m/s, 168° | 66 W/m² | - |
| 1777992097 | 21.67° C | 86% | 1005.8 hPa | 0 mm | 1.79 m/s, 166° | 63 W/m² | - |
| 1777991794 | 21.11° C | 86% | 1006 hPa | 0 mm | 2.24 m/s, 199° | 68 W/m² | - |
| 1777991491 | 21.11° C | 86% | 1006 hPa | 0 mm | 0.89 m/s, 200° | 61 W/m² | - |
| 1777991188 | 21.11° C | 86% | 1006 hPa | 0 mm | 3.13 m/s, 163° | 50 W/m² | - |
| 1777990886 | 21.11° C | 86% | 1006.1 hPa | 0 mm | 0.45 m/s, 211° | 57 W/m² | - |
| 1777990583 | 21.11° C | 86% | 1006 hPa | 0 mm | 0 m/s | 60 W/m² | - |
| 1777990280 | 21.11° C | 86% | 1006.1 hPa | 0 mm | 1.79 m/s, 214° | 46 W/m² | - |
| 1777989977 | 21.11° C | 86% | 1006 hPa | 0 mm | 1.34 m/s, 167° | 45 W/m² | - |
| 1777989674 | 21.11° C | 86% | 1005.9 hPa | 0 mm | 3.58 m/s, 171° | 43 W/m² | - |
| 1777989369 | 21.11° C | 86% | 1005.7 hPa | 0 mm | 3.13 m/s, 152° | 54 W/m² | - |
| 1777989066 | 21.11° C | 86% | 1005.8 hPa | 0 mm | 0 m/s | 56 W/m² | - |
| 1777988762 | 21.11° C | 86% | 1005.7 hPa | 0 mm | 0.89 m/s, 148° | 62 W/m² | - |
| 1777988460 | 21.11° C | 86% | 1005.5 hPa | 0 mm | 0.89 m/s, 145° | 56 W/m² | - |
| 1777988156 | 21.11° C | 86% | 1005.5 hPa | 0 mm | 0.45 m/s, 159° | 64 W/m² | - |
| 1777987852 | 21.11° C | 86% | 1005.6 hPa | 0 mm | 1.79 m/s, 172° | 47 W/m² | - |
| 1777987549 | 20.56° C | 86% | 1005.5 hPa | 0 mm | 2.24 m/s, 184° | 57 W/m² | - |
| 1777987247 | 20.56° C | 86% | 1005.4 hPa | 0 mm | 0.45 m/s, 180° | 52 W/m² | - |
| 1777986943 | 20.56° C | 86% | 1005.7 hPa | 0 mm | 0.45 m/s, 233° | 44 W/m² | - |
| 1777986641 | 20.56° C | 86% | 1005.4 hPa | 0 mm | 1.34 m/s, 181° | 34 W/m² | - |
* Rain latest hour (hover to see other rain measurements)
** Current wind speed in m/s (hover to see current wind gust speed)